sensor_id;sensor_type;location;lat;lon;timestamp;temperature;humidity
3332;DHT22;1678;50.94845400;5.30809100;2022-08-05T00:00:22;18.30;1.40
3332;DHT22;1678;50.94845400;5.30809100;2022-08-05T00:02:51;18.20;1.40
3332;DHT22;1678;50.94845400;5.30809100;2022-08-05T00:05:20;18.30;1.40
3332;DHT22;1678;50.94845400;5.30809100;2022-08-05T00:08:08;18.20;1.40
3332;DHT22;1678;50.94845400;5.30809100;2022-08-05T00:10:56;18.30;1.40
3332;DHT22;1678;50.94845400;5.30809100;2022-08-05T00:13:27;18.20;1.40
3332;DHT22;1678;50.94845400;5.30809100;2022-08-05T00:16:08;18.20;1.40
3332;DHT22;1678;50.94845400;5.30809100;2022-08-05T00:18:39;18.00;1.40
3332;DHT22;1678;50.94845400;5.30809100;2022-08-05T00:21:10;18.10;1.40
3332;DHT22;1678;50.94845400;5.30809100;2022-08-05T00:23:41;18.00;1.40
3332;DHT22;1678;50.94845400;5.30809100;2022-08-05T00:26:13;18.10;1.40
3332;DHT22;1678;50.94845400;5.30809100;2022-08-05T00:28:42;18.10;1.40
3332;DHT22;1678;50.94845400;5.30809100;2022-08-05T00:31:13;18.00;1.40
3332;DHT22;1678;50.94845400;5.30809100;2022-08-05T00:33:41;18.00;1.40
3332;DHT22;1678;50.94845400;5.30809100;2022-08-05T00:36:29;18.00;1.40
3332;DHT22;1678;50.94845400;5.30809100;2022-08-05T00:39:17;18.00;1.40
3332;DHT22;1678;50.94845400;5.30809100;2022-08-05T00:41:46;18.10;1.40
3332;DHT22;1678;50.94845400;5.30809100;2022-08-05T00:44:21;18.20;1.40
3332;DHT22;1678;50.94845400;5.30809100;2022-08-05T00:46:58;18.10;1.40
3332;DHT22;1678;50.94845400;5.30809100;2022-08-05T00:49:31;18.10;1.40
3332;DHT22;1678;50.94845400;5.30809100;2022-08-05T00:52:17;18.10;1.40
3332;DHT22;1678;50.94845400;5.30809100;2022-08-05T00:54:54;18.20;1.40
3332;DHT22;1678;50.94845400;5.30809100;2022-08-05T00:57:24;18.30;1.40
3332;DHT22;1678;50.94845400;5.30809100;2022-08-05T01:00:12;18.30;1.40
3332;DHT22;1678;50.94845400;5.30809100;2022-08-05T01:02:44;18.20;1.40
3332;DHT22;1678;50.94845400;5.30809100;2022-08-05T01:05:15;18.20;1.40
3332;DHT22;1678;50.94845400;5.30809100;2022-08-05T01:07:44;18.20;1.40
3332;DHT22;1678;50.94845400;5.30809100;2022-08-05T01:10:37;18.20;1.40
3332;DHT22;1678;50.94845400;5.30809100;2022-08-05T01:13:23;18.30;1.40
3332;DHT22;1678;50.94845400;5.30809100;2022-08-05T01:15:58;18.20;1.40
3332;DHT22;1678;50.94845400;5.30809100;2022-08-05T01:18:33;18.10;1.40
3332;DHT22;1678;50.94845400;5.30809100;2022-08-05T01:21:07;18.10;1.40
3332;DHT22;1678;50.94845400;5.30809100;2022-08-05T01:24:05;18.00;1.40
3332;DHT22;1678;50.94845400;5.30809100;2022-08-05T01:26:52;18.10;1.40
3332;DHT22;1678;50.94845400;5.30809100;2022-08-05T01:29:30;18.00;1.40
3332;DHT22;1678;50.94845400;5.30809100;2022-08-05T01:32:02;18.10;1.40
3332;DHT22;1678;50.94845400;5.30809100;2022-08-05T01:34:42;18.00;1.40
3332;DHT22;1678;50.94845400;5.30809100;2022-08-05T01:37:18;18.00;1.40
3332;DHT22;1678;50.94845400;5.30809100;2022-08-05T01:39:52;18.10;1.40
3332;DHT22;1678;50.94845400;5.30809100;2022-08-05T01:42:25;18.10;1.40
3332;DHT22;1678;50.94845400;5.30809100;2022-08-05T01:44:58;18.00;1.40
3332;DHT22;1678;50.94845400;5.30809100;2022-08-05T01:47:30;18.10;1.40
3332;DHT22;1678;50.94845400;5.30809100;2022-08-05T01:50:11;17.90;1.40
3332;DHT22;1678;50.94845400;5.30809100;2022-08-05T01:52:43;18.00;1.40
3332;DHT22;1678;50.94845400;5.30809100;2022-08-05T01:55:18;18.00;1.40
3332;DHT22;1678;50.94845400;5.30809100;2022-08-05T01:57:48;18.00;1.40
3332;DHT22;1678;50.94845400;5.30809100;2022-08-05T02:00:42;17.80;1.40
3332;DHT22;1678;50.94845400;5.30809100;2022-08-05T02:03:17;18.00;99.90
3332;DHT22;1678;50.94845400;5.30809100;2022-08-05T02:05:59;17.90;99.90
3332;DHT22;1678;50.94845400;5.30809100;2022-08-05T02:08:48;18.00;99.90
3332;DHT22;1678;50.94845400;5.30809100;2022-08-05T02:11:24;17.90;99.90
3332;DHT22;1678;50.94845400;5.30809100;2022-08-05T02:14:01;18.00;99.90
3332;DHT22;1678;50.94845400;5.30809100;2022-08-05T02:16:44;17.80;99.90
3332;DHT22;1678;50.94845400;5.30809100;2022-08-05T02:19:24;17.70;99.90
3332;DHT22;1678;50.94845400;5.30809100;2022-08-05T02:22:11;17.80;99.90
3332;DHT22;1678;50.94845400;5.30809100;2022-08-05T02:24:57;17.90;99.90
3332;DHT22;1678;50.94845400;5.30809100;2022-08-05T02:27:28;17.90;99.90
3332;DHT22;1678;50.94845400;5.30809100;2022-08-05T02:30:17;17.90;99.90
3332;DHT22;1678;50.94845400;5.30809100;2022-08-05T02:32:50;18.00;99.90
3332;DHT22;1678;50.94845400;5.30809100;2022-08-05T02:35:21;17.80;99.90
3332;DHT22;1678;50.94845400;5.30809100;2022-08-05T02:37:59;17.90;99.90
3332;DHT22;1678;50.94845400;5.30809100;2022-08-05T02:40:29;17.90;99.90
3332;DHT22;1678;50.94845400;5.30809100;2022-08-05T02:43:00;17.90;99.90
3332;DHT22;1678;50.94845400;5.30809100;2022-08-05T02:45:33;18.10;99.90
3332;DHT22;1678;50.94845400;5.30809100;2022-08-05T02:48:22;18.10;99.90
3332;DHT22;1678;50.94845400;5.30809100;2022-08-05T02:50:57;18.00;99.90
3332;DHT22;1678;50.94845400;5.30809100;2022-08-05T02:53:27;18.00;99.90
3332;DHT22;1678;50.94845400;5.30809100;2022-08-05T02:56:08;18.10;99.90
3332;DHT22;1678;50.94845400;5.30809100;2022-08-05T02:58:44;18.20;99.90
3332;DHT22;1678;50.94845400;5.30809100;2022-08-05T03:01:20;18.20;99.90
3332;DHT22;1678;50.94845400;5.30809100;2022-08-05T03:03:54;18.00;99.90
3332;DHT22;1678;50.94845400;5.30809100;2022-08-05T03:06:37;18.10;99.90
3332;DHT22;1678;50.94845400;5.30809100;2022-08-05T03:09:25;18.20;99.90
3332;DHT22;1678;50.94845400;5.30809100;2022-08-05T03:12:05;18.20;99.90
3332;DHT22;1678;50.94845400;5.30809100;2022-08-05T03:14:33;18.20;99.90
3332;DHT22;1678;50.94845400;5.30809100;2022-08-05T03:17:11;18.10;99.90
3332;DHT22;1678;50.94845400;5.30809100;2022-08-05T03:19:41;18.10;99.90
3332;DHT22;1678;50.94845400;5.30809100;2022-08-05T03:22:11;18.30;99.90
3332;DHT22;1678;50.94845400;5.30809100;2022-08-05T03:24:46;18.20;99.90
3332;DHT22;1678;50.94845400;5.30809100;2022-08-05T03:27:18;18.20;99.90
3332;DHT22;1678;50.94845400;5.30809100;2022-08-05T03:29:46;18.30;99.90
3332;DHT22;1678;50.94845400;5.30809100;2022-08-05T03:32:35;18.20;99.90
3332;DHT22;1678;50.94845400;5.30809100;2022-08-05T03:35:05;18.10;99.90
3332;DHT22;1678;50.94845400;5.30809100;2022-08-05T03:37:34;18.10;99.90
3332;DHT22;1678;50.94845400;5.30809100;2022-08-05T03:40:12;18.10;99.90
3332;DHT22;1678;50.94845400;5.30809100;2022-08-05T03:42:50;18.20;99.90
3332;DHT22;1678;50.94845400;5.30809100;2022-08-05T03:45:20;18.20;99.90
3332;DHT22;1678;50.94845400;5.30809100;2022-08-05T03:47:49;18.30;99.90
3332;DHT22;1678;50.94845400;5.30809100;2022-08-05T03:50:31;18.20;99.90
3332;DHT22;1678;50.94845400;5.30809100;2022-08-05T03:53:03;18.10;99.90
3332;DHT22;1678;50.94845400;5.30809100;2022-08-05T03:56:02;18.10;99.90
3332;DHT22;1678;50.94845400;5.30809100;2022-08-05T03:58:54;18.00;99.90
3332;DHT22;1678;50.94845400;5.30809100;2022-08-05T04:01:24;18.10;99.90
3332;DHT22;1678;50.94845400;5.30809100;2022-08-05T04:03:58;18.10;99.90
3332;DHT22;1678;50.94845400;5.30809100;2022-08-05T04:06:37;18.20;99.90
3332;DHT22;1678;50.94845400;5.30809100;2022-08-05T04:09:14;18.20;99.90
3332;DHT22;1678;50.94845400;5.30809100;2022-08-05T04:11:52;18.20;99.90
3332;DHT22;1678;50.94845400;5.30809100;2022-08-05T04:14:24;18.10;99.90
3332;DHT22;1678;50.94845400;5.30809100;2022-08-05T04:16:57;18.20;99.90
3332;DHT22;1678;50.94845400;5.30809100;2022-08-05T04:19:26;18.00;99.90
3332;DHT22;1678;50.94845400;5.30809100;2022-08-05T04:21:56;18.10;99.90
3332;DHT22;1678;50.94845400;5.30809100;2022-08-05T04:24:38;18.00;99.90
3332;DHT22;1678;50.94845400;5.30809100;2022-08-05T04:27:10;18.00;99.90
3332;DHT22;1678;50.94845400;5.30809100;2022-08-05T04:29:39;18.10;99.90
3332;DHT22;1678;50.94845400;5.30809100;2022-08-05T04:32:08;18.10;99.90
3332;DHT22;1678;50.94845400;5.30809100;2022-08-05T04:34:36;18.00;99.90
3332;DHT22;1678;50.94845400;5.30809100;2022-08-05T04:37:10;18.00;99.90
3332;DHT22;1678;50.94845400;5.30809100;2022-08-05T04:39:38;18.10;99.90
3332;DHT22;1678;50.94845400;5.30809100;2022-08-05T04:42:07;18.10;99.90
3332;DHT22;1678;50.94845400;5.30809100;2022-08-05T04:44:36;18.10;99.90
3332;DHT22;1678;50.94845400;5.30809100;2022-08-05T04:47:05;18.10;99.90
3332;DHT22;1678;50.94845400;5.30809100;2022-08-05T04:49:35;18.10;99.90
3332;DHT22;1678;50.94845400;5.30809100;2022-08-05T04:52:24;18.10;99.90
3332;DHT22;1678;50.94845400;5.30809100;2022-08-05T04:54:53;18.10;99.90
3332;DHT22;1678;50.94845400;5.30809100;2022-08-05T04:57:23;18.00;99.90
3332;DHT22;1678;50.94845400;5.30809100;2022-08-05T04:59:55;18.00;99.90
3332;DHT22;1678;50.94845400;5.30809100;2022-08-05T05:02:24;18.10;99.90
3332;DHT22;1678;50.94845400;5.30809100;2022-08-05T05:05:04;18.10;99.90
3332;DHT22;1678;50.94845400;5.30809100;2022-08-05T05:07:55;18.00;99.90
3332;DHT22;1678;50.94845400;5.30809100;2022-08-05T05:10:28;17.90;99.90
3332;DHT22;1678;50.94845400;5.30809100;2022-08-05T05:12:59;18.00;99.90
3332;DHT22;1678;50.94845400;5.30809100;2022-08-05T05:15:30;17.90;99.90
3332;DHT22;1678;50.94845400;5.30809100;2022-08-05T05:18:18;18.00;99.90
3332;DHT22;1678;50.94845400;5.30809100;2022-08-05T05:21:00;18.00;99.90
3332;DHT22;1678;50.94845400;5.30809100;2022-08-05T05:23:30;18.00;99.90
3332;DHT22;1678;50.94845400;5.30809100;2022-08-05T05:26:19;18.10;99.90
3332;DHT22;1678;50.94845400;5.30809100;2022-08-05T05:28:58;18.10;99.90
3332;DHT22;1678;50.94845400;5.30809100;2022-08-05T05:31:28;18.10;99.90
3332;DHT22;1678;50.94845400;5.30809100;2022-08-05T05:33:57;18.10;99.90
3332;DHT22;1678;50.94845400;5.30809100;2022-08-05T05:36:29;18.10;99.90
3332;DHT22;1678;50.94845400;5.30809100;2022-08-05T05:38:58;18.10;99.90
3332;DHT22;1678;50.94845400;5.30809100;2022-08-05T05:41:30;18.10;99.90
3332;DHT22;1678;50.94845400;5.30809100;2022-08-05T05:44:08;18.20;99.90
3332;DHT22;1678;50.94845400;5.30809100;2022-08-05T05:46:56;18.30;99.90
3332;DHT22;1678;50.94845400;5.30809100;2022-08-05T05:49:30;18.10;99.90
3332;DHT22;1678;50.94845400;5.30809100;2022-08-05T05:51:59;18.10;99.90
3332;DHT22;1678;50.94845400;5.30809100;2022-08-05T05:54:34;17.80;99.90
3332;DHT22;1678;50.94845400;5.30809100;2022-08-05T05:57:17;17.80;99.90
3332;DHT22;1678;50.94845400;5.30809100;2022-08-05T05:59:45;17.70;99.90
3332;DHT22;1678;50.94845400;5.30809100;2022-08-05T06:02:14;17.60;99.90
3332;DHT22;1678;50.94845400;5.30809100;2022-08-05T06:05:03;17.70;99.90
3332;DHT22;1678;50.94845400;5.30809100;2022-08-05T06:07:43;17.60;99.90
3332;DHT22;1678;50.94845400;5.30809100;2022-08-05T06:10:28;17.50;99.90
3332;DHT22;1678;50.94845400;5.30809100;2022-08-05T06:13:03;17.50;99.90
3332;DHT22;1678;50.94845400;5.30809100;2022-08-05T06:15:31;17.40;99.90
3332;DHT22;1678;50.94845400;5.30809100;2022-08-05T06:18:19;17.60;99.90
3332;DHT22;1678;50.94845400;5.30809100;2022-08-05T06:20:57;17.50;99.90
3332;DHT22;1678;50.94845400;5.30809100;2022-08-05T06:23:26;17.50;99.90
3332;DHT22;1678;50.94845400;5.30809100;2022-08-05T06:26:11;17.50;99.90
3332;DHT22;1678;50.94845400;5.30809100;2022-08-05T06:28:49;17.70;99.90
3332;DHT22;1678;50.94845400;5.30809100;2022-08-05T06:31:18;17.70;99.90
3332;DHT22;1678;50.94845400;5.30809100;2022-08-05T06:33:48;17.60;99.90
3332;DHT22;1678;50.94845400;5.30809100;2022-08-05T06:36:34;17.70;99.90
3332;DHT22;1678;50.94845400;5.30809100;2022-08-05T06:39:22;17.80;99.90
3332;DHT22;1678;50.94845400;5.30809100;2022-08-05T06:41:55;17.70;99.90
3332;DHT22;1678;50.94845400;5.30809100;2022-08-05T06:44:25;17.50;99.90
3332;DHT22;1678;50.94845400;5.30809100;2022-08-05T06:46:53;17.60;99.90
3332;DHT22;1678;50.94845400;5.30809100;2022-08-05T06:49:22;17.70;99.90
3332;DHT22;1678;50.94845400;5.30809100;2022-08-05T06:52:10;17.70;99.90
3332;DHT22;1678;50.94845400;5.30809100;2022-08-05T06:54:58;17.80;99.90
3332;DHT22;1678;50.94845400;5.30809100;2022-08-05T06:57:29;17.90;99.90
3332;DHT22;1678;50.94845400;5.30809100;2022-08-05T07:00:18;18.10;99.90
3332;DHT22;1678;50.94845400;5.30809100;2022-08-05T07:02:50;18.00;99.90
3332;DHT22;1678;50.94845400;5.30809100;2022-08-05T07:05:19;18.10;99.90
3332;DHT22;1678;50.94845400;5.30809100;2022-08-05T07:08:04;18.30;99.90
3332;DHT22;1678;50.94845400;5.30809100;2022-08-05T07:10:37;18.40;99.90
3332;DHT22;1678;50.94845400;5.30809100;2022-08-05T07:13:21;18.40;99.90
3332;DHT22;1678;50.94845400;5.30809100;2022-08-05T07:16:26;18.50;99.90
3332;DHT22;1678;50.94845400;5.30809100;2022-08-05T07:19:31;18.10;99.90
3332;DHT22;1678;50.94845400;5.30809100;2022-08-05T07:22:20;18.30;99.90
3332;DHT22;1678;50.94845400;5.30809100;2022-08-05T07:24:57;18.50;99.90
3332;DHT22;1678;50.94845400;5.30809100;2022-08-05T07:27:45;18.40;99.90
3332;DHT22;1678;50.94845400;5.30809100;2022-08-05T07:30:30;18.50;99.90
3332;DHT22;1678;50.94845400;5.30809100;2022-08-05T07:33:00;18.60;99.90
3332;DHT22;1678;50.94845400;5.30809100;2022-08-05T07:35:31;18.50;99.90
3332;DHT22;1678;50.94845400;5.30809100;2022-08-05T07:38:19;18.40;99.90
3332;DHT22;1678;50.94845400;5.30809100;2022-08-05T07:41:02;18.50;99.90
3332;DHT22;1678;50.94845400;5.30809100;2022-08-05T07:43:50;18.50;99.90
3332;DHT22;1678;50.94845400;5.30809100;2022-08-05T07:46:23;18.30;99.90
3332;DHT22;1678;50.94845400;5.30809100;2022-08-05T07:48:53;18.20;99.90
3332;DHT22;1678;50.94845400;5.30809100;2022-08-05T07:51:35;18.10;99.90
3332;DHT22;1678;50.94845400;5.30809100;2022-08-05T07:54:14;18.00;99.90
3332;DHT22;1678;50.94845400;5.30809100;2022-08-05T07:56:44;18.20;99.90
3332;DHT22;1678;50.94845400;5.30809100;2022-08-05T07:59:32;18.40;99.90
3332;DHT22;1678;50.94845400;5.30809100;2022-08-05T08:02:09;18.70;99.90
3332;DHT22;1678;50.94845400;5.30809100;2022-08-05T08:04:44;18.70;99.90
3332;DHT22;1678;50.94845400;5.30809100;2022-08-05T08:07:13;18.50;99.90
3332;DHT22;1678;50.94845400;5.30809100;2022-08-05T08:09:41;18.60;99.90
3332;DHT22;1678;50.94845400;5.30809100;2022-08-05T08:12:10;18.40;99.90
3332;DHT22;1678;50.94845400;5.30809100;2022-08-05T08:14:59;18.40;99.90
3332;DHT22;1678;50.94845400;5.30809100;2022-08-05T08:17:30;18.70;99.90
3332;DHT22;1678;50.94845400;5.30809100;2022-08-05T08:20:01;18.90;99.90
3332;DHT22;1678;50.94845400;5.30809100;2022-08-05T08:22:51;18.70;99.90
3332;DHT22;1678;50.94845400;5.30809100;2022-08-05T08:25:22;18.70;99.90
3332;DHT22;1678;50.94845400;5.30809100;2022-08-05T08:28:10;18.60;99.90
3332;DHT22;1678;50.94845400;5.30809100;2022-08-05T08:30:58;18.80;99.90
3332;DHT22;1678;50.94845400;5.30809100;2022-08-05T08:33:28;19.00;99.90
3332;DHT22;1678;50.94845400;5.30809100;2022-08-05T08:36:03;19.00;99.90
3332;DHT22;1678;50.94845400;5.30809100;2022-08-05T08:38:51;19.40;99.90
3332;DHT22;1678;50.94845400;5.30809100;2022-08-05T08:41:21;19.30;99.90
3332;DHT22;1678;50.94845400;5.30809100;2022-08-05T08:44:11;19.40;99.90
3332;DHT22;1678;50.94845400;5.30809100;2022-08-05T08:47:02;19.60;99.90
3332;DHT22;1678;50.94845400;5.30809100;2022-08-05T08:49:53;19.60;99.90
3332;DHT22;1678;50.94845400;5.30809100;2022-08-05T08:52:46;19.80;99.90
3332;DHT22;1678;50.94845400;5.30809100;2022-08-05T08:55:19;19.80;99.90
3332;DHT22;1678;50.94845400;5.30809100;2022-08-05T08:58:08;19.60;99.90
3332;DHT22;1678;50.94845400;5.30809100;2022-08-05T09:00:39;19.60;99.90
3332;DHT22;1678;50.94845400;5.30809100;2022-08-05T09:03:10;19.50;99.90
3332;DHT22;1678;50.94845400;5.30809100;2022-08-05T09:05:46;19.80;99.90
3332;DHT22;1678;50.94845400;5.30809100;2022-08-05T09:08:34;19.80;99.90
3332;DHT22;1678;50.94845400;5.30809100;2022-08-05T09:11:06;20.30;99.90
3332;DHT22;1678;50.94845400;5.30809100;2022-08-05T09:13:40;20.70;99.90
3332;DHT22;1678;50.94845400;5.30809100;2022-08-05T09:16:28;21.20;99.90
3332;DHT22;1678;50.94845400;5.30809100;2022-08-05T09:18:57;21.80;99.90
3332;DHT22;1678;50.94845400;5.30809100;2022-08-05T09:21:27;21.60;99.90
3332;DHT22;1678;50.94845400;5.30809100;2022-08-05T09:24:16;21.80;99.90
3332;DHT22;1678;50.94845400;5.30809100;2022-08-05T09:26:46;21.60;99.90
3332;DHT22;1678;50.94845400;5.30809100;2022-08-05T09:29:18;21.40;99.90
3332;DHT22;1678;50.94845400;5.30809100;2022-08-05T09:32:04;21.10;99.90
3332;DHT22;1678;50.94845400;5.30809100;2022-08-05T09:34:54;21.10;99.90
3332;DHT22;1678;50.94845400;5.30809100;2022-08-05T09:37:26;21.70;99.90
3332;DHT22;1678;50.94845400;5.30809100;2022-08-05T09:40:29;22.20;99.90
3332;DHT22;1678;50.94845400;5.30809100;2022-08-05T09:42:59;22.80;99.90
3332;DHT22;1678;50.94845400;5.30809100;2022-08-05T09:45:37;22.60;99.90
3332;DHT22;1678;50.94845400;5.30809100;2022-08-05T09:48:27;22.30;99.90
3332;DHT22;1678;50.94845400;5.30809100;2022-08-05T09:50:58;22.40;99.90
3332;DHT22;1678;50.94845400;5.30809100;2022-08-05T09:53:29;22.10;99.90
3332;DHT22;1678;50.94845400;5.30809100;2022-08-05T09:56:30;21.80;99.90
3332;DHT22;1678;50.94845400;5.30809100;2022-08-05T09:59:03;21.80;99.90
3332;DHT22;1678;50.94845400;5.30809100;2022-08-05T10:01:32;22.00;99.90
3332;DHT22;1678;50.94845400;5.30809100;2022-08-05T10:04:07;22.50;99.90
3332;DHT22;1678;50.94845400;5.30809100;2022-08-05T10:06:39;22.60;99.90
3332;DHT22;1678;50.94845400;5.30809100;2022-08-05T10:09:26;22.50;97.80
3332;DHT22;1678;50.94845400;5.30809100;2022-08-05T10:12:07;22.50;93.90
3332;DHT22;1678;50.94845400;5.30809100;2022-08-05T10:15:13;22.70;88.50
3332;DHT22;1678;50.94845400;5.30809100;2022-08-05T10:17:44;23.00;86.10
3332;DHT22;1678;50.94845400;5.30809100;2022-08-05T10:20:23;23.30;78.50
3332;DHT22;1678;50.94845400;5.30809100;2022-08-05T10:22:53;23.30;70.90
3332;DHT22;1678;50.94845400;5.30809100;2022-08-05T10:25:25;23.30;74.60
3332;DHT22;1678;50.94845400;5.30809100;2022-08-05T10:27:54;23.50;75.00
3332;DHT22;1678;50.94845400;5.30809100;2022-08-05T10:30:43;23.60;71.90
3332;DHT22;1678;50.94845400;5.30809100;2022-08-05T10:33:32;23.90;74.00
3332;DHT22;1678;50.94845400;5.30809100;2022-08-05T10:36:02;24.40;69.00
3332;DHT22;1678;50.94845400;5.30809100;2022-08-05T10:38:33;24.80;62.00
3332;DHT22;1678;50.94845400;5.30809100;2022-08-05T10:41:07;24.80;62.70
3332;DHT22;1678;50.94845400;5.30809100;2022-08-05T10:43:48;25.00;62.50
3332;DHT22;1678;50.94845400;5.30809100;2022-08-05T10:46:18;24.80;62.30
3332;DHT22;1678;50.94845400;5.30809100;2022-08-05T10:48:54;24.40;63.70
3332;DHT22;1678;50.94845400;5.30809100;2022-08-05T10:51:41;23.70;69.40
3332;DHT22;1678;50.94845400;5.30809100;2022-08-05T10:54:45;23.50;69.40
3332;DHT22;1678;50.94845400;5.30809100;2022-08-05T10:57:27;23.10;70.10
3332;DHT22;1678;50.94845400;5.30809100;2022-08-05T11:00:10;22.90;70.20
3332;DHT22;1678;50.94845400;5.30809100;2022-08-05T11:03:10;23.00;70.00
3332;DHT22;1678;50.94845400;5.30809100;2022-08-05T11:06:09;22.80;74.90
3332;DHT22;1678;50.94845400;5.30809100;2022-08-05T11:09:17;22.80;73.30
3332;DHT22;1678;50.94845400;5.30809100;2022-08-05T11:12:42;22.70;72.50
3332;DHT22;1678;50.94845400;5.30809100;2022-08-05T11:15:22;22.60;73.80
3332;DHT22;1678;50.94845400;5.30809100;2022-08-05T11:18:24;23.00;70.40
3332;DHT22;1678;50.94845400;5.30809100;2022-08-05T11:20:56;23.40;67.00
3332;DHT22;1678;50.94845400;5.30809100;2022-08-05T11:23:33;23.40;69.40
3332;DHT22;1678;50.94845400;5.30809100;2022-08-05T11:26:22;23.60;71.10
3332;DHT22;1678;50.94845400;5.30809100;2022-08-05T11:28:59;23.30;68.80
3332;DHT22;1678;50.94845400;5.30809100;2022-08-05T11:31:41;23.10;74.90
3332;DHT22;1678;50.94845400;5.30809100;2022-08-05T11:34:40;23.40;70.30
3332;DHT22;1678;50.94845400;5.30809100;2022-08-05T11:37:40;23.90;66.60
3332;DHT22;1678;50.94845400;5.30809100;2022-08-05T11:40:56;24.50;60.70
3332;DHT22;1678;50.94845400;5.30809100;2022-08-05T11:43:53;25.20;59.70
3332;DHT22;1678;50.94845400;5.30809100;2022-08-05T11:46:38;25.00;51.00
3332;DHT22;1678;50.94845400;5.30809100;2022-08-05T11:49:26;24.60;52.70
3332;DHT22;1678;50.94845400;5.30809100;2022-08-05T11:51:59;24.20;51.00
3332;DHT22;1678;50.94845400;5.30809100;2022-08-05T11:54:38;23.70;51.40
3332;DHT22;1678;50.94845400;5.30809100;2022-08-05T11:57:09;23.20;49.60
3332;DHT22;1678;50.94845400;5.30809100;2022-08-05T11:59:52;23.20;50.10
3332;DHT22;1678;50.94845400;5.30809100;2022-08-05T12:02:27;23.20;52.60
3332;DHT22;1678;50.94845400;5.30809100;2022-08-05T12:05:01;23.20;53.80
3332;DHT22;1678;50.94845400;5.30809100;2022-08-05T12:07:35;23.10;52.30
3332;DHT22;1678;50.94845400;5.30809100;2022-08-05T12:10:25;23.60;53.30
3332;DHT22;1678;50.94845400;5.30809100;2022-08-05T12:13:12;23.80;50.20
3332;DHT22;1678;50.94845400;5.30809100;2022-08-05T12:15:43;24.30;51.60
3332;DHT22;1678;50.94845400;5.30809100;2022-08-05T12:18:26;24.90;47.70
3332;DHT22;1678;50.94845400;5.30809100;2022-08-05T12:21:12;25.30;46.90
3332;DHT22;1678;50.94845400;5.30809100;2022-08-05T12:23:51;25.50;46.60
3332;DHT22;1678;50.94845400;5.30809100;2022-08-05T12:26:19;24.80;48.30
3332;DHT22;1678;50.94845400;5.30809100;2022-08-05T12:28:49;24.20;46.10
3332;DHT22;1678;50.94845400;5.30809100;2022-08-05T12:31:17;23.90;48.40
3332;DHT22;1678;50.94845400;5.30809100;2022-08-05T12:34:01;24.10;47.50
3332;DHT22;1678;50.94845400;5.30809100;2022-08-05T12:36:29;24.80;45.40
3332;DHT22;1678;50.94845400;5.30809100;2022-08-05T12:38:58;25.70;43.50
3332;DHT22;1678;50.94845400;5.30809100;2022-08-05T12:41:30;25.40;40.70
3332;DHT22;1678;50.94845400;5.30809100;2022-08-05T12:44:02;25.50;39.20
3332;DHT22;1678;50.94845400;5.30809100;2022-08-05T12:46:39;25.30;38.30
3332;DHT22;1678;50.94845400;5.30809100;2022-08-05T12:49:13;25.50;39.50
3332;DHT22;1678;50.94845400;5.30809100;2022-08-05T12:51:46;25.70;39.20
3332;DHT22;1678;50.94845400;5.30809100;2022-08-05T12:54:34;25.70;37.00
3332;DHT22;1678;50.94845400;5.30809100;2022-08-05T12:57:05;24.50;38.80
3332;DHT22;1678;50.94845400;5.30809100;2022-08-05T12:59:43;24.40;42.60
3332;DHT22;1678;50.94845400;5.30809100;2022-08-05T13:02:34;24.30;40.60
3332;DHT22;1678;50.94845400;5.30809100;2022-08-05T13:05:07;24.40;38.60
3332;DHT22;1678;50.94845400;5.30809100;2022-08-05T13:07:41;24.90;40.50
3332;DHT22;1678;50.94845400;5.30809100;2022-08-05T13:10:26;25.00;36.60
3332;DHT22;1678;50.94845400;5.30809100;2022-08-05T13:12:55;24.60;38.40
3332;DHT22;1678;50.94845400;5.30809100;2022-08-05T13:15:28;24.90;37.10
3332;DHT22;1678;50.94845400;5.30809100;2022-08-05T13:18:07;25.00;38.50
3332;DHT22;1678;50.94845400;5.30809100;2022-08-05T13:20:37;24.30;38.80
3332;DHT22;1678;50.94845400;5.30809100;2022-08-05T13:23:06;24.20;39.70
3332;DHT22;1678;50.94845400;5.30809100;2022-08-05T13:25:34;23.80;41.60
3332;DHT22;1678;50.94845400;5.30809100;2022-08-05T13:28:22;23.80;40.80
3332;DHT22;1678;50.94845400;5.30809100;2022-08-05T13:30:50;24.40;39.00
3332;DHT22;1678;50.94845400;5.30809100;2022-08-05T13:33:19;24.20;38.00
3332;DHT22;1678;50.94845400;5.30809100;2022-08-05T13:36:09;24.20;38.50
3332;DHT22;1678;50.94845400;5.30809100;2022-08-05T13:38:40;25.00;38.60
3332;DHT22;1678;50.94845400;5.30809100;2022-08-05T13:41:09;25.70;37.30
3332;DHT22;1678;50.94845400;5.30809100;2022-08-05T13:43:37;26.30;35.60
3332;DHT22;1678;50.94845400;5.30809100;2022-08-05T13:46:17;26.20;36.10
3332;DHT22;1678;50.94845400;5.30809100;2022-08-05T13:49:05;26.50;34.10
3332;DHT22;1678;50.94845400;5.30809100;2022-08-05T13:51:39;25.90;34.40
3332;DHT22;1678;50.94845400;5.30809100;2022-08-05T13:54:13;25.50;35.70
3332;DHT22;1678;50.94845400;5.30809100;2022-08-05T13:56:44;25.30;35.90
3332;DHT22;1678;50.94845400;5.30809100;2022-08-05T13:59:18;25.00;37.20
3332;DHT22;1678;50.94845400;5.30809100;2022-08-05T14:01:51;25.20;36.80
3332;DHT22;1678;50.94845400;5.30809100;2022-08-05T14:04:26;25.10;36.00
3332;DHT22;1678;50.94845400;5.30809100;2022-08-05T14:07:19;24.90;37.30
3332;DHT22;1678;50.94845400;5.30809100;2022-08-05T14:10:09;25.20;36.20
3332;DHT22;1678;50.94845400;5.30809100;2022-08-05T14:12:37;25.50;32.80
3332;DHT22;1678;50.94845400;5.30809100;2022-08-05T14:15:10;25.80;33.70
3332;DHT22;1678;50.94845400;5.30809100;2022-08-05T14:17:58;25.60;32.70
3332;DHT22;1678;50.94845400;5.30809100;2022-08-05T14:20:27;26.70;29.60
3332;DHT22;1678;50.94845400;5.30809100;2022-08-05T14:22:58;27.20;27.40
3332;DHT22;1678;50.94845400;5.30809100;2022-08-05T14:25:28;27.90;28.20
3332;DHT22;1678;50.94845400;5.30809100;2022-08-05T14:27:56;28.00;25.40
3332;DHT22;1678;50.94845400;5.30809100;2022-08-05T14:30:25;28.60;26.30
3332;DHT22;1678;50.94845400;5.30809100;2022-08-05T14:32:54;28.20;24.80
3332;DHT22;1678;50.94845400;5.30809100;2022-08-05T14:35:23;28.50;23.10
3332;DHT22;1678;50.94845400;5.30809100;2022-08-05T14:38:13;28.50;23.60
3332;DHT22;1678;50.94845400;5.30809100;2022-08-05T14:40:59;28.30;24.40
3332;DHT22;1678;50.94845400;5.30809100;2022-08-05T14:43:33;29.00;22.10
3332;DHT22;1678;50.94845400;5.30809100;2022-08-05T14:46:22;29.60;20.40